sensor_id;sensor_type;location;lat;lon;timestamp;temperature;humidity
11824;DHT22;5969;50.780;7.726;2023-06-14T00:00:26;17.10;80.00
11824;DHT22;5969;50.780;7.726;2023-06-14T00:02:53;17.20;80.00
11824;DHT22;5969;50.780;7.726;2023-06-14T00:05:21;17.00;80.20
11824;DHT22;5969;50.780;7.726;2023-06-14T00:07:49;17.00;80.70
11824;DHT22;5969;50.780;7.726;2023-06-14T00:10:20;17.00;80.70
11824;DHT22;5969;50.780;7.726;2023-06-14T00:12:47;16.90;80.80
11824;DHT22;5969;50.780;7.726;2023-06-14T00:15:14;16.80;80.90
11824;DHT22;5969;50.780;7.726;2023-06-14T00:17:42;16.80;81.30
11824;DHT22;5969;50.780;7.726;2023-06-14T00:20:11;16.80;80.90
11824;DHT22;5969;50.780;7.726;2023-06-14T00:22:38;16.80;81.00
11824;DHT22;5969;50.780;7.726;2023-06-14T00:25:06;16.70;81.30
11824;DHT22;5969;50.780;7.726;2023-06-14T00:27:34;16.60;81.70
11824;DHT22;5969;50.780;7.726;2023-06-14T00:30:02;16.60;81.50
11824;DHT22;5969;50.780;7.726;2023-06-14T00:32:29;16.60;81.70
11824;DHT22;5969;50.780;7.726;2023-06-14T00:34:56;16.50;81.40
11824;DHT22;5969;50.780;7.726;2023-06-14T00:37:25;16.50;81.50
11824;DHT22;5969;50.780;7.726;2023-06-14T00:39:52;16.60;81.50
11824;DHT22;5969;50.780;7.726;2023-06-14T00:42:25;16.60;81.50
11824;DHT22;5969;50.780;7.726;2023-06-14T00:44:54;16.60;81.50
11824;DHT22;5969;50.780;7.726;2023-06-14T00:47:21;16.60;81.50
11824;DHT22;5969;50.780;7.726;2023-06-14T00:49:51;16.50;82.30
11824;DHT22;5969;50.780;7.726;2023-06-14T00:52:18;16.40;81.70
11824;DHT22;5969;50.780;7.726;2023-06-14T00:54:46;16.40;82.10
11824;DHT22;5969;50.780;7.726;2023-06-14T00:57:13;16.30;82.00
11824;DHT22;5969;50.780;7.726;2023-06-14T00:59:43;16.30;82.20
11824;DHT22;5969;50.780;7.726;2023-06-14T01:02:12;16.20;82.00
11824;DHT22;5969;50.780;7.726;2023-06-14T01:04:42;16.20;82.20
11824;DHT22;5969;50.780;7.726;2023-06-14T01:07:17;16.30;81.80
11824;DHT22;5969;50.780;7.726;2023-06-14T01:09:58;16.30;81.70
11824;DHT22;5969;50.780;7.726;2023-06-14T01:12:31;16.30;81.90
11824;DHT22;5969;50.780;7.726;2023-06-14T01:15:02;16.30;81.70
11824;DHT22;5969;50.780;7.726;2023-06-14T01:17:32;16.20;81.30
11824;DHT22;5969;50.780;7.726;2023-06-14T01:20:01;16.30;81.60
11824;DHT22;5969;50.780;7.726;2023-06-14T01:22:33;16.20;81.40
11824;DHT22;5969;50.780;7.726;2023-06-14T01:25:01;16.20;81.50
11824;DHT22;5969;50.780;7.726;2023-06-14T01:27:29;16.20;81.10
11824;DHT22;5969;50.780;7.726;2023-06-14T01:29:58;16.20;80.90
11824;DHT22;5969;50.780;7.726;2023-06-14T01:32:31;16.20;81.00
11824;DHT22;5969;50.780;7.726;2023-06-14T01:34:58;16.20;80.90
11824;DHT22;5969;50.780;7.726;2023-06-14T01:37:26;16.20;80.70
11824;DHT22;5969;50.780;7.726;2023-06-14T01:39:53;16.20;81.00
11824;DHT22;5969;50.780;7.726;2023-06-14T01:42:23;16.20;81.10
11824;DHT22;5969;50.780;7.726;2023-06-14T01:44:51;16.20;80.90
11824;DHT22;5969;50.780;7.726;2023-06-14T01:47:19;16.10;80.90
11824;DHT22;5969;50.780;7.726;2023-06-14T01:49:47;16.10;80.90
11824;DHT22;5969;50.780;7.726;2023-06-14T01:52:14;16.10;81.10
11824;DHT22;5969;50.780;7.726;2023-06-14T01:54:41;16.10;80.80
11824;DHT22;5969;50.780;7.726;2023-06-14T01:57:08;16.00;81.00
11824;DHT22;5969;50.780;7.726;2023-06-14T01:59:37;16.00;81.00
11824;DHT22;5969;50.780;7.726;2023-06-14T02:02:04;16.00;80.70
11824;DHT22;5969;50.780;7.726;2023-06-14T02:04:39;15.90;81.10
11824;DHT22;5969;50.780;7.726;2023-06-14T02:07:06;15.90;81.00
11824;DHT22;5969;50.780;7.726;2023-06-14T02:09:33;15.80;81.20
11824;DHT22;5969;50.780;7.726;2023-06-14T02:12:01;15.70;81.10
11824;DHT22;5969;50.780;7.726;2023-06-14T02:14:28;15.70;81.20
11824;DHT22;5969;50.780;7.726;2023-06-14T02:16:57;15.70;81.30
11824;DHT22;5969;50.780;7.726;2023-06-14T02:19:24;15.70;81.20
11824;DHT22;5969;50.780;7.726;2023-06-14T02:22:18;15.70;81.50
11824;DHT22;5969;50.780;7.726;2023-06-14T02:24:47;15.60;81.50
11824;DHT22;5969;50.780;7.726;2023-06-14T02:27:14;15.50;81.40
11824;DHT22;5969;50.780;7.726;2023-06-14T02:29:41;15.40;82.20
11824;DHT22;5969;50.780;7.726;2023-06-14T02:32:10;15.40;82.00
11824;DHT22;5969;50.780;7.726;2023-06-14T02:34:37;15.30;82.10
11824;DHT22;5969;50.780;7.726;2023-06-14T02:37:06;15.30;82.50
11824;DHT22;5969;50.780;7.726;2023-06-14T02:39:34;15.30;83.20
11824;DHT22;5969;50.780;7.726;2023-06-14T02:42:02;15.10;84.00
11824;DHT22;5969;50.780;7.726;2023-06-14T02:44:29;14.90;85.40
11824;DHT22;5969;50.780;7.726;2023-06-14T02:47:00;14.90;85.00
11824;DHT22;5969;50.780;7.726;2023-06-14T02:49:29;14.90;84.50
11824;DHT22;5969;50.780;7.726;2023-06-14T02:51:56;14.90;84.00
11824;DHT22;5969;50.780;7.726;2023-06-14T02:54:23;15.00;83.80
11824;DHT22;5969;50.780;7.726;2023-06-14T02:56:50;14.90;83.50
11824;DHT22;5969;50.780;7.726;2023-06-14T02:59:18;15.00;83.30
11824;DHT22;5969;50.780;7.726;2023-06-14T03:01:47;15.00;83.10
11824;DHT22;5969;50.780;7.726;2023-06-14T03:04:14;15.00;82.90
11824;DHT22;5969;50.780;7.726;2023-06-14T03:06:43;15.00;82.50
11824;DHT22;5969;50.780;7.726;2023-06-14T03:09:16;15.00;82.90
11824;DHT22;5969;50.780;7.726;2023-06-14T03:11:43;15.00;83.50
11824;DHT22;5969;50.780;7.726;2023-06-14T03:14:18;14.90;83.10
11824;DHT22;5969;50.780;7.726;2023-06-14T03:16:47;14.90;83.60
11824;DHT22;5969;50.780;7.726;2023-06-14T03:19:16;14.90;83.50
11824;DHT22;5969;50.780;7.726;2023-06-14T03:21:44;14.90;83.60
11824;DHT22;5969;50.780;7.726;2023-06-14T03:24:11;14.80;83.50
11824;DHT22;5969;50.780;7.726;2023-06-14T03:26:38;14.80;83.40
11824;DHT22;5969;50.780;7.726;2023-06-14T03:29:06;14.80;83.50
11824;DHT22;5969;50.780;7.726;2023-06-14T03:31:34;14.80;83.90
11824;DHT22;5969;50.780;7.726;2023-06-14T03:34:02;14.80;83.90
11824;DHT22;5969;50.780;7.726;2023-06-14T03:36:29;14.70;83.50
11824;DHT22;5969;50.780;7.726;2023-06-14T03:38:57;14.60;84.70
11824;DHT22;5969;50.780;7.726;2023-06-14T03:41:24;14.50;85.80
11824;DHT22;5969;50.780;7.726;2023-06-14T03:43:52;14.30;86.30
11824;DHT22;5969;50.780;7.726;2023-06-14T03:46:19;14.10;87.40
11824;DHT22;5969;50.780;7.726;2023-06-14T03:48:46;14.00;88.30
11824;DHT22;5969;50.780;7.726;2023-06-14T03:51:13;13.90;88.80
11824;DHT22;5969;50.780;7.726;2023-06-14T03:53:41;13.80;89.10
11824;DHT22;5969;50.780;7.726;2023-06-14T03:56:10;13.90;89.10
11824;DHT22;5969;50.780;7.726;2023-06-14T03:58:37;14.10;87.60
11824;DHT22;5969;50.780;7.726;2023-06-14T04:01:10;14.10;86.90
11824;DHT22;5969;50.780;7.726;2023-06-14T04:03:38;14.30;86.50
11824;DHT22;5969;50.780;7.726;2023-06-14T04:06:06;14.50;85.90
11824;DHT22;5969;50.780;7.726;2023-06-14T04:08:33;14.60;85.00
11824;DHT22;5969;50.780;7.726;2023-06-14T04:11:01;14.70;84.90
11824;DHT22;5969;50.780;7.726;2023-06-14T04:13:30;14.80;84.60
11824;DHT22;5969;50.780;7.726;2023-06-14T04:15:57;14.80;84.40
11824;DHT22;5969;50.780;7.726;2023-06-14T04:18:24;14.90;84.30
11824;DHT22;5969;50.780;7.726;2023-06-14T04:20:52;15.00;84.40
11824;DHT22;5969;50.780;7.726;2023-06-14T04:23:22;15.00;84.30
11824;DHT22;5969;50.780;7.726;2023-06-14T04:25:49;15.10;84.20
11824;DHT22;5969;50.780;7.726;2023-06-14T04:28:16;15.20;84.00
11824;DHT22;5969;50.780;7.726;2023-06-14T04:30:46;15.20;83.80
11824;DHT22;5969;50.780;7.726;2023-06-14T04:33:14;15.30;83.90
11824;DHT22;5969;50.780;7.726;2023-06-14T04:35:41;15.30;83.50
11824;DHT22;5969;50.780;7.726;2023-06-14T04:38:08;15.30;83.60
11824;DHT22;5969;50.780;7.726;2023-06-14T04:40:46;15.40;83.40
11824;DHT22;5969;50.780;7.726;2023-06-14T04:43:13;15.50;82.70
11824;DHT22;5969;50.780;7.726;2023-06-14T04:45:43;15.50;83.40
11824;DHT22;5969;50.780;7.726;2023-06-14T04:48:13;15.60;83.70
11824;DHT22;5969;50.780;7.726;2023-06-14T04:50:41;15.50;83.80
11824;DHT22;5969;50.780;7.726;2023-06-14T04:53:09;15.50;83.80
11824;DHT22;5969;50.780;7.726;2023-06-14T04:55:36;15.60;83.60
11824;DHT22;5969;50.780;7.726;2023-06-14T04:58:06;15.60;83.90
11824;DHT22;5969;50.780;7.726;2023-06-14T05:00:34;15.70;83.60
11824;DHT22;5969;50.780;7.726;2023-06-14T05:03:01;15.70;83.30
11824;DHT22;5969;50.780;7.726;2023-06-14T05:05:29;15.70;83.70
11824;DHT22;5969;50.780;7.726;2023-06-14T05:07:57;15.80;83.50
11824;DHT22;5969;50.780;7.726;2023-06-14T05:10:36;15.80;83.60
11824;DHT22;5969;50.780;7.726;2023-06-14T05:13:09;15.90;83.10
11824;DHT22;5969;50.780;7.726;2023-06-14T05:15:52;15.90;83.50
11824;DHT22;5969;50.780;7.726;2023-06-14T05:18:20;15.90;83.70
11824;DHT22;5969;50.780;7.726;2023-06-14T05:20:48;16.00;83.80
11824;DHT22;5969;50.780;7.726;2023-06-14T05:23:15;16.10;84.00
11824;DHT22;5969;50.780;7.726;2023-06-14T05:25:43;16.20;83.80
11824;DHT22;5969;50.780;7.726;2023-06-14T05:28:10;16.30;83.60
11824;DHT22;5969;50.780;7.726;2023-06-14T05:30:38;16.40;83.50
11824;DHT22;5969;50.780;7.726;2023-06-14T05:33:12;16.50;83.20
11824;DHT22;5969;50.780;7.726;2023-06-14T05:35:44;16.50;83.10
11824;DHT22;5969;50.780;7.726;2023-06-14T05:38:13;16.50;82.80
11824;DHT22;5969;50.780;7.726;2023-06-14T05:40:40;16.50;82.90
11824;DHT22;5969;50.780;7.726;2023-06-14T05:43:08;16.60;82.80
11824;DHT22;5969;50.780;7.726;2023-06-14T05:45:36;16.70;83.10
11824;DHT22;5969;50.780;7.726;2023-06-14T05:48:03;16.70;82.40
11824;DHT22;5969;50.780;7.726;2023-06-14T05:50:30;16.80;82.70
11824;DHT22;5969;50.780;7.726;2023-06-14T05:52:57;16.80;82.60
11824;DHT22;5969;50.780;7.726;2023-06-14T05:55:26;16.80;82.50
11824;DHT22;5969;50.780;7.726;2023-06-14T05:57:59;16.90;82.60
11824;DHT22;5969;50.780;7.726;2023-06-14T06:00:26;16.90;82.60
11824;DHT22;5969;50.780;7.726;2023-06-14T06:02:53;17.00;82.60
11824;DHT22;5969;50.780;7.726;2023-06-14T06:05:22;17.10;82.30
11824;DHT22;5969;50.780;7.726;2023-06-14T06:07:50;17.20;82.10
11824;DHT22;5969;50.780;7.726;2023-06-14T06:10:17;17.20;81.90
11824;DHT22;5969;50.780;7.726;2023-06-14T06:12:46;17.30;82.10
11824;DHT22;5969;50.780;7.726;2023-06-14T06:15:14;17.40;82.20
11824;DHT22;5969;50.780;7.726;2023-06-14T06:17:42;17.40;81.90
11824;DHT22;5969;50.780;7.726;2023-06-14T06:20:10;17.50;81.70
11824;DHT22;5969;50.780;7.726;2023-06-14T06:22:37;17.60;81.80
11824;DHT22;5969;50.780;7.726;2023-06-14T06:25:05;17.50;81.10
11824;DHT22;5969;50.780;7.726;2023-06-14T06:27:33;17.60;81.20
11824;DHT22;5969;50.780;7.726;2023-06-14T06:30:03;17.70;81.30
11824;DHT22;5969;50.780;7.726;2023-06-14T06:32:31;17.70;81.60
11824;DHT22;5969;50.780;7.726;2023-06-14T06:34:58;17.80;80.70
11824;DHT22;5969;50.780;7.726;2023-06-14T06:37:29;17.90;80.60
11824;DHT22;5969;50.780;7.726;2023-06-14T06:39:56;17.90;80.50
11824;DHT22;5969;50.780;7.726;2023-06-14T06:42:23;17.90;80.30
11824;DHT22;5969;50.780;7.726;2023-06-14T06:44:50;18.00;80.30
11824;DHT22;5969;50.780;7.726;2023-06-14T06:47:18;18.10;80.40
11824;DHT22;5969;50.780;7.726;2023-06-14T06:49:45;18.10;81.00
11824;DHT22;5969;50.780;7.726;2023-06-14T06:52:13;18.20;80.10
11824;DHT22;5969;50.780;7.726;2023-06-14T06:54:40;18.20;80.10
11824;DHT22;5969;50.780;7.726;2023-06-14T06:57:08;18.30;80.00
11824;DHT22;5969;50.780;7.726;2023-06-14T06:59:36;18.30;80.10
11824;DHT22;5969;50.780;7.726;2023-06-14T07:02:04;18.30;80.30
11824;DHT22;5969;50.780;7.726;2023-06-14T07:04:33;18.40;80.50
11824;DHT22;5969;50.780;7.726;2023-06-14T07:07:00;18.50;78.70
11824;DHT22;5969;50.780;7.726;2023-06-14T07:09:27;18.50;78.40
11824;DHT22;5969;50.780;7.726;2023-06-14T07:11:54;18.50;78.20
11824;DHT22;5969;50.780;7.726;2023-06-14T07:14:23;18.50;78.20
11824;DHT22;5969;50.780;7.726;2023-06-14T07:16:50;18.50;77.50
11824;DHT22;5969;50.780;7.726;2023-06-14T07:19:17;18.60;78.20
11824;DHT22;5969;50.780;7.726;2023-06-14T07:21:45;18.60;77.90
11824;DHT22;5969;50.780;7.726;2023-06-14T07:24:15;18.70;78.20
11824;DHT22;5969;50.780;7.726;2023-06-14T07:26:42;18.70;77.40
11824;DHT22;5969;50.780;7.726;2023-06-14T07:29:10;18.80;76.90
11824;DHT22;5969;50.780;7.726;2023-06-14T07:31:37;18.80;76.70
11824;DHT22;5969;50.780;7.726;2023-06-14T07:34:05;18.80;76.80
11824;DHT22;5969;50.780;7.726;2023-06-14T07:36:32;18.90;76.90
11824;DHT22;5969;50.780;7.726;2023-06-14T07:39:00;18.90;77.30
11824;DHT22;5969;50.780;7.726;2023-06-14T07:41:29;18.90;78.10
11824;DHT22;5969;50.780;7.726;2023-06-14T07:43:57;19.00;76.90
11824;DHT22;5969;50.780;7.726;2023-06-14T07:46:24;19.10;76.80
11824;DHT22;5969;50.780;7.726;2023-06-14T07:48:51;19.20;76.80
11824;DHT22;5969;50.780;7.726;2023-06-14T07:51:18;19.20;76.40
11824;DHT22;5969;50.780;7.726;2023-06-14T07:53:48;19.20;75.90
11824;DHT22;5969;50.780;7.726;2023-06-14T07:56:16;19.30;76.90
11824;DHT22;5969;50.780;7.726;2023-06-14T07:58:44;19.30;75.80
11824;DHT22;5969;50.780;7.726;2023-06-14T08:01:11;19.40;75.20
11824;DHT22;5969;50.780;7.726;2023-06-14T08:03:39;19.40;75.50
11824;DHT22;5969;50.780;7.726;2023-06-14T08:06:09;19.40;75.30
11824;DHT22;5969;50.780;7.726;2023-06-14T08:08:37;19.50;75.90
11824;DHT22;5969;50.780;7.726;2023-06-14T08:11:04;19.60;75.70
11824;DHT22;5969;50.780;7.726;2023-06-14T08:13:33;19.60;76.10
11824;DHT22;5969;50.780;7.726;2023-06-14T08:16:00;19.60;76.30
11824;DHT22;5969;50.780;7.726;2023-06-14T08:18:30;19.70;76.10
11824;DHT22;5969;50.780;7.726;2023-06-14T08:20:58;19.70;74.20
11824;DHT22;5969;50.780;7.726;2023-06-14T08:23:25;19.80;75.20
11824;DHT22;5969;50.780;7.726;2023-06-14T08:25:52;19.90;74.30
11824;DHT22;5969;50.780;7.726;2023-06-14T08:28:20;20.00;74.60
11824;DHT22;5969;50.780;7.726;2023-06-14T08:30:49;20.00;73.70
11824;DHT22;5969;50.780;7.726;2023-06-14T08:33:17;20.10;74.30
11824;DHT22;5969;50.780;7.726;2023-06-14T08:35:44;20.10;73.60
11824;DHT22;5969;50.780;7.726;2023-06-14T08:38:12;20.20;73.70
11824;DHT22;5969;50.780;7.726;2023-06-14T08:40:40;20.20;74.00
11824;DHT22;5969;50.780;7.726;2023-06-14T08:43:08;20.20;74.20
11824;DHT22;5969;50.780;7.726;2023-06-14T08:45:35;20.30;73.30
11824;DHT22;5969;50.780;7.726;2023-06-14T08:48:05;20.20;73.90
11824;DHT22;5969;50.780;7.726;2023-06-14T08:50:33;20.20;74.90
11824;DHT22;5969;50.780;7.726;2023-06-14T08:53:02;20.30;74.50
11824;DHT22;5969;50.780;7.726;2023-06-14T08:55:31;20.30;74.60
11824;DHT22;5969;50.780;7.726;2023-06-14T08:57:58;20.40;74.90
11824;DHT22;5969;50.780;7.726;2023-06-14T09:00:26;20.50;74.80
11824;DHT22;5969;50.780;7.726;2023-06-14T09:02:55;20.70;73.90
11824;DHT22;5969;50.780;7.726;2023-06-14T09:05:25;20.70;73.50
11824;DHT22;5969;50.780;7.726;2023-06-14T09:07:53;20.60;73.70
11824;DHT22;5969;50.780;7.726;2023-06-14T09:10:22;20.70;74.40
11824;DHT22;5969;50.780;7.726;2023-06-14T09:12:51;20.80;74.30
11824;DHT22;5969;50.780;7.726;2023-06-14T09:15:18;20.80;73.40
11824;DHT22;5969;50.780;7.726;2023-06-14T09:18:06;20.80;73.20
11824;DHT22;5969;50.780;7.726;2023-06-14T09:20:35;20.80;72.90
11824;DHT22;5969;50.780;7.726;2023-06-14T09:23:04;20.90;72.70
11824;DHT22;5969;50.780;7.726;2023-06-14T09:25:42;21.00;71.90
11824;DHT22;5969;50.780;7.726;2023-06-14T09:28:10;21.10;71.80
11824;DHT22;5969;50.780;7.726;2023-06-14T09:30:38;21.10;71.00
11824;DHT22;5969;50.780;7.726;2023-06-14T09:33:05;21.10;71.10
11824;DHT22;5969;50.780;7.726;2023-06-14T09:35:34;21.10;69.70
11824;DHT22;5969;50.780;7.726;2023-06-14T09:38:01;21.20;70.80
11824;DHT22;5969;50.780;7.726;2023-06-14T09:40:34;21.20;70.70
11824;DHT22;5969;50.780;7.726;2023-06-14T09:43:05;21.30;70.40
11824;DHT22;5969;50.780;7.726;2023-06-14T09:45:33;21.30;70.50
11824;DHT22;5969;50.780;7.726;2023-06-14T09:48:01;21.30;69.40
11824;DHT22;5969;50.780;7.726;2023-06-14T09:50:29;21.30;70.00
11824;DHT22;5969;50.780;7.726;2023-06-14T09:53:02;21.40;69.70
11824;DHT22;5969;50.780;7.726;2023-06-14T09:55:31;21.50;69.60
11824;DHT22;5969;50.780;7.726;2023-06-14T09:58:05;21.60;69.60
11824;DHT22;5969;50.780;7.726;2023-06-14T10:00:33;21.60;69.50
11824;DHT22;5969;50.780;7.726;2023-06-14T10:03:12;21.60;69.30
11824;DHT22;5969;50.780;7.726;2023-06-14T10:05:41;21.70;69.00
11824;DHT22;5969;50.780;7.726;2023-06-14T10:08:22;21.70;68.90
11824;DHT22;5969;50.780;7.726;2023-06-14T10:10:51;21.70;69.60
11824;DHT22;5969;50.780;7.726;2023-06-14T10:13:19;21.80;69.30
11824;DHT22;5969;50.780;7.726;2023-06-14T10:15:54;21.80;69.90
11824;DHT22;5969;50.780;7.726;2023-06-14T10:18:31;21.80;70.70
11824;DHT22;5969;50.780;7.726;2023-06-14T10:21:04;21.90;70.50
11824;DHT22;5969;50.780;7.726;2023-06-14T10:23:41;21.90;70.30
11824;DHT22;5969;50.780;7.726;2023-06-14T10:26:18;22.00;69.90
11824;DHT22;5969;50.780;7.726;2023-06-14T10:28:56;22.00;69.90
11824;DHT22;5969;50.780;7.726;2023-06-14T10:31:23;22.00;70.70
11824;DHT22;5969;50.780;7.726;2023-06-14T10:34:06;22.10;71.10
11824;DHT22;5969;50.780;7.726;2023-06-14T10:36:42;22.20;70.20
11824;DHT22;5969;50.780;7.726;2023-06-14T10:39:16;22.40;70.50
11824;DHT22;5969;50.780;7.726;2023-06-14T10:41:51;22.60;69.50
11824;DHT22;5969;50.780;7.726;2023-06-14T10:44:41;22.60;69.90
11824;DHT22;5969;50.780;7.726;2023-06-14T10:47:25;22.70;69.00
11824;DHT22;5969;50.780;7.726;2023-06-14T10:49:53;22.80;69.40
11824;DHT22;5969;50.780;7.726;2023-06-14T10:52:23;22.70;69.00
11824;DHT22;5969;50.780;7.726;2023-06-14T10:55:11;22.70;69.90
11824;DHT22;5969;50.780;7.726;2023-06-14T10:57:42;22.80;69.80
11824;DHT22;5969;50.780;7.726;2023-06-14T11:00:12;22.70;69.80
11824;DHT22;5969;50.780;7.726;2023-06-14T11:03:22;22.80;69.70
11824;DHT22;5969;50.780;7.726;2023-06-14T11:05:57;22.90;69.70
11824;DHT22;5969;50.780;7.726;2023-06-14T11:09:04;23.00;69.80
11824;DHT22;5969;50.780;7.726;2023-06-14T11:11:38;23.00;69.40
11824;DHT22;5969;50.780;7.726;2023-06-14T11:14:08;23.20;68.80
11824;DHT22;5969;50.780;7.726;2023-06-14T11:16:37;23.30;68.20
11824;DHT22;5969;50.780;7.726;2023-06-14T11:19:05;23.20;67.80
11824;DHT22;5969;50.780;7.726;2023-06-14T11:21:33;23.20;68.70
11824;DHT22;5969;50.780;7.726;2023-06-14T11:24:00;23.30;67.80
11824;DHT22;5969;50.780;7.726;2023-06-14T11:26:28;23.40;68.10
11824;DHT22;5969;50.780;7.726;2023-06-14T11:28:58;23.30;67.60
11824;DHT22;5969;50.780;7.726;2023-06-14T11:31:26;23.30;67.80
11824;DHT22;5969;50.780;7.726;2023-06-14T11:33:56;23.40;68.10
11824;DHT22;5969;50.780;7.726;2023-06-14T11:36:27;23.40;67.90
11824;DHT22;5969;50.780;7.726;2023-06-14T11:38:58;23.50;68.10
11824;DHT22;5969;50.780;7.726;2023-06-14T11:41:32;23.40;67.40
11824;DHT22;5969;50.780;7.726;2023-06-14T11:44:02;23.30;68.60
11824;DHT22;5969;50.780;7.726;2023-06-14T11:46:29;23.50;68.40
11824;DHT22;5969;50.780;7.726;2023-06-14T11:49:00;23.60;68.30
11824;DHT22;5969;50.780;7.726;2023-06-14T11:51:31;23.70;68.20
11824;DHT22;5969;50.780;7.726;2023-06-14T11:53:59;23.90;67.80
11824;DHT22;5969;50.780;7.726;2023-06-14T11:56:29;23.90;68.10
11824;DHT22;5969;50.780;7.726;2023-06-14T11:58:57;24.00;68.30
11824;DHT22;5969;50.780;7.726;2023-06-14T12:01:26;24.20;67.90
11824;DHT22;5969;50.780;7.726;2023-06-14T12:03:54;24.30;66.70
11824;DHT22;5969;50.780;7.726;2023-06-14T12:06:29;24.40;65.70
11824;DHT22;5969;50.780;7.726;2023-06-14T12:08:59;24.50;66.10
11824;DHT22;5969;50.780;7.726;2023-06-14T12:11:32;24.60;65.50
11824;DHT22;5969;50.780;7.726;2023-06-14T12:14:10;24.90;66.40
11824;DHT22;5969;50.780;7.726;2023-06-14T12:16:39;25.10;66.20
11824;DHT22;5969;50.780;7.726;2023-06-14T12:19:12;25.10;65.60
11824;DHT22;5969;50.780;7.726;2023-06-14T12:21:40;25.20;65.60
11824;DHT22;5969;50.780;7.726;2023-06-14T12:24:08;25.20;65.10
11824;DHT22;5969;50.780;7.726;2023-06-14T12:26:38;25.20;64.80
11824;DHT22;5969;50.780;7.726;2023-06-14T12:29:07;25.00;64.80
11824;DHT22;5969;50.780;7.726;2023-06-14T12:31:34;25.10;65.80
11824;DHT22;5969;50.780;7.726;2023-06-14T12:34:03;25.30;65.30
11824;DHT22;5969;50.780;7.726;2023-06-14T12:36:31;25.50;65.60
11824;DHT22;5969;50.780;7.726;2023-06-14T12:38:58;25.50;64.90
11824;DHT22;5969;50.780;7.726;2023-06-14T12:41:25;25.60;64.50
11824;DHT22;5969;50.780;7.726;2023-06-14T12:43:53;25.80;64.40
11824;DHT22;5969;50.780;7.726;2023-06-14T12:46:20;25.80;64.30
11824;DHT22;5969;50.780;7.726;2023-06-14T12:48:51;25.90;64.50
11824;DHT22;5969;50.780;7.726;2023-06-14T12:51:33;26.00;66.10
11824;DHT22;5969;50.780;7.726;2023-06-14T12:54:02;26.20;64.20
11824;DHT22;5969;50.780;7.726;2023-06-14T12:56:33;26.20;65.40
11824;DHT22;5969;50.780;7.726;2023-06-14T12:59:00;26.20;65.40
11824;DHT22;5969;50.780;7.726;2023-06-14T13:01:27;26.10;64.30
11824;DHT22;5969;50.780;7.726;2023-06-14T13:03:54;25.90;64.30
11824;DHT22;5969;50.780;7.726;2023-06-14T13:06:23;25.90;64.70
11824;DHT22;5969;50.780;7.726;2023-06-14T13:08:50;25.90;64.70
11824;DHT22;5969;50.780;7.726;2023-06-14T13:11:26;25.90;64.40
11824;DHT22;5969;50.780;7.726;2023-06-14T13:13:58;26.00;66.90
11824;DHT22;5969;50.780;7.726;2023-06-14T13:16:26;26.30;64.50
11824;DHT22;5969;50.780;7.726;2023-06-14T13:18:53;26.50;64.60
11824;DHT22;5969;50.780;7.726;2023-06-14T13:21:20;26.60;64.60
11824;DHT22;5969;50.780;7.726;2023-06-14T13:23:49;26.50;64.90
11824;DHT22;5969;50.780;7.726;2023-06-14T13:26:16;26.70;65.80
11824;DHT22;5969;50.780;7.726;2023-06-14T13:28:44;26.70;63.90
11824;DHT22;5969;50.780;7.726;2023-06-14T13:31:11;26.00;63.20
11824;DHT22;5969;50.780;7.726;2023-06-14T13:33:39;25.60;64.80
11824;DHT22;5969;50.780;7.726;2023-06-14T13:36:06;26.10;65.40
11824;DHT22;5969;50.780;7.726;2023-06-14T13:38:33;26.80;63.60
11824;DHT22;5969;50.780;7.726;2023-06-14T13:41:02;27.10;62.70
11824;DHT22;5969;50.780;7.726;2023-06-14T13:43:29;27.50;62.50
11824;DHT22;5969;50.780;7.726;2023-06-14T13:45:56;27.90;61.70
11824;DHT22;5969;50.780;7.726;2023-06-14T13:48:23;28.10;61.30
11824;DHT22;5969;50.780;7.726;2023-06-14T13:50:50;27.80;60.50
11824;DHT22;5969;50.780;7.726;2023-06-14T13:53:17;28.00;62.10
11824;DHT22;5969;50.780;7.726;2023-06-14T13:55:44;28.40;63.40
11824;DHT22;5969;50.780;7.726;2023-06-14T13:58:12;29.00;62.30
11824;DHT22;5969;50.780;7.726;2023-06-14T14:00:40;29.70;59.50
11824;DHT22;5969;50.780;7.726;2023-06-14T14:03:07;29.20;58.20
11824;DHT22;5969;50.780;7.726;2023-06-14T14:05:34;29.10;60.00
11824;DHT22;5969;50.780;7.726;2023-06-14T14:08:01;29.70;59.80
11824;DHT22;5969;50.780;7.726;2023-06-14T14:10:29;31.40;58.30
11824;DHT22;5969;50.780;7.726;2023-06-14T14:12:56;33.20;55.60
11824;DHT22;5969;50.780;7.726;2023-06-14T14:15:26;34.80;53.20
11824;DHT22;5969;50.780;7.726;2023-06-14T14:17:54;35.80;51.00
11824;DHT22;5969;50.780;7.726;2023-06-14T14:20:23;36.00;50.60
11824;DHT22;5969;50.780;7.726;2023-06-14T14:22:50;36.00;50.40
11824;DHT22;5969;50.780;7.726;2023-06-14T14:25:17;36.80;51.20
11824;DHT22;5969;50.780;7.726;2023-06-14T14:27:44;36.90;49.70
11824;DHT22;5969;50.780;7.726;2023-06-14T14:30:13;37.20;49.70
11824;DHT22;5969;50.780;7.726;2023-06-14T14:32:43;38.00;49.30
11824;DHT22;5969;50.780;7.726;2023-06-14T14:35:10;36.20;50.70
11824;DHT22;5969;50.780;7.726;2023-06-14T14:37:37;34.40;50.60
11824;DHT22;5969;50.780;7.726;2023-06-14T14:40:12;33.30;54.30
11824;DHT22;5969;50.780;7.726;2023-06-14T14:42:39;34.30;54.40
11824;DHT22;5969;50.780;7.726;2023-06-14T14:45:07;35.20;51.90
11824;DHT22;5969;50.780;7.726;2023-06-14T14:47:34;36.10;50.30
11824;DHT22;5969;50.780;7.726;2023-06-14T14:50:02;36.00;49.70
11824;DHT22;5969;50.780;7.726;2023-06-14T14:52:29;35.70;50.80
11824;DHT22;5969;50.780;7.726;2023-06-14T14:54:56;36.40;49.70
11824;DHT22;5969;50.780;7.726;2023-06-14T14:57:23;36.70;49.30
11824;DHT22;5969;50.780;7.726;2023-06-14T14:59:50;36.60;49.50
11824;DHT22;5969;50.780;7.726;2023-06-14T15:02:18;35.40;50.00
11824;DHT22;5969;50.780;7.726;2023-06-14T15:04:45;34.00;50.70
11824;DHT22;5969;50.780;7.726;2023-06-14T15:07:13;33.30;51.90
11824;DHT22;5969;50.780;7.726;2023-06-14T15:09:41;32.20;53.20
11824;DHT22;5969;50.780;7.726;2023-06-14T15:12:10;31.20;53.50
11824;DHT22;5969;50.780;7.726;2023-06-14T15:14:37;30.30;54.50
11824;DHT22;5969;50.780;7.726;2023-06-14T15:17:04;30.50;55.50
11824;DHT22;5969;50.780;7.726;2023-06-14T15:19:31;32.00;54.10
11824;DHT22;5969;50.780;7.726;2023-06-14T15:21:59;33.80;53.40
11824;DHT22;5969;50.780;7.726;2023-06-14T15:24:36;35.20;50.80
11824;DHT22;5969;50.780;7.726;2023-06-14T15:27:03;36.40;48.90
11824;DHT22;5969;50.780;7.726;2023-06-14T15:29:30;36.00;49.10
11824;DHT22;5969;50.780;7.726;2023-06-14T15:31:57;35.60;50.90
11824;DHT22;5969;50.780;7.726;2023-06-14T15:34:24;35.90;48.80
11824;DHT22;5969;50.780;7.726;2023-06-14T15:36:51;35.50;49.70
11824;DHT22;5969;50.780;7.726;2023-06-14T15:39:18;35.10;48.10
11824;DHT22;5969;50.780;7.726;2023-06-14T15:41:47;34.90;50.30
11824;DHT22;5969;50.780;7.726;2023-06-14T15:44:14;35.60;49.50
11824;DHT22;5969;50.780;7.726;2023-06-14T15:46:41;36.10;49.40
11824;DHT22;5969;50.780;7.726;2023-06-14T15:49:09;36.40;49.20
11824;DHT22;5969;50.780;7.726;2023-06-14T15:51:36;36.60;47.70
11824;DHT22;5969;50.780;7.726;2023-06-14T15:54:03;36.20;48.90
11824;DHT22;5969;50.780;7.726;2023-06-14T15:56:30;36.30;48.90